<?xml version="1.0" encoding="UTF-8"?>
<gpx creator="Garmin Connect" version="1.1"
  xsi:schemaLocation="http://www.topografix.com/GPX/1/1 http://www.topografix.com/GPX/11.xsd"
  xmlns:ns3="http://www.garmin.com/xmlschemas/TrackPointExtension/v1"
  xmlns="http://www.topografix.com/GPX/1/1"
  xmlns:xsi="http://www.w3.org/2001/XMLSchema-instance" xmlns:ns2="http://www.garmin.com/xmlschemas/GpxExtensions/v3">
  <metadata>
    <name>STUPAVA MARATON 10KM BEH</name>
    <link href="connect.garmin.com">
      <text>Garmin Connect</text>
    </link>
    <time>2024-01-19T07:53:12.000Z</time>
  </metadata>
  <trk>
    <name>STUPAVA MARATON 10KM BEH</name>
    <trkseg>
      <trkpt lat="48.27897193841636" lon="17.048861794173717">
        <ele>192.81</ele>
        <time>2024-01-19T07:53:12.000Z</time>
      </trkpt>
      <trkpt lat="48.279107892885804" lon="17.049890756607056">
        <ele>197.94</ele>
        <time>2024-01-19T07:53:12.023Z</time>
      </trkpt>
      <trkpt lat="48.2791615370661" lon="17.050362825393677">
        <ele>199.01</ele>
        <time>2024-01-19T07:53:12.057Z</time>
      </trkpt>
      <trkpt lat="48.27917226590216" lon="17.050448656082153">
        <ele>199.84</ele>
        <time>2024-01-19T07:53:12.093Z</time>
      </trkpt>
      <trkpt lat="48.27973016537726" lon="17.054868936538696">
        <ele>201.78</ele>
        <time>2024-01-19T07:53:12.229Z</time>
      </trkpt>
      <trkpt lat="48.27990182675421" lon="17.05626368522644">
        <ele>202.5</ele>
        <time>2024-01-19T07:53:12.397Z</time>
      </trkpt>
      <trkpt lat="48.27994474209845" lon="17.056671380996704">
        <ele>202.58</ele>
        <time>2024-01-19T07:53:12.574Z</time>
      </trkpt>
      <trkpt lat="48.27996611595154" lon="17.05673575401306">
        <ele>202.56</ele>
        <time>2024-01-19T07:53:12.753Z</time>
      </trkpt>
      <trkpt lat="48.27969789505005" lon="17.056875228881836">
        <ele>202.38</ele>
        <time>2024-01-19T07:53:12.941Z</time>
      </trkpt>
      <trkpt lat="48.2794189453125" lon="17.05698251724243">
        <ele>202.21</ele>
        <time>2024-01-19T07:53:13.139Z</time>
      </trkpt>
      <trkpt lat="48.27922582626343" lon="17.057089805603027">
        <ele>201.89</ele>
        <time>2024-01-19T07:53:13.343Z</time>
      </trkpt>
      <trkpt lat="48.279064893722534" lon="17.05724000930786">
        <ele>201.55</ele>
        <time>2024-01-19T07:53:13.554Z</time>
      </trkpt>
      <trkpt lat="48.27892541885376" lon="17.057411670684814">
        <ele>201.25</ele>
        <time>2024-01-19T07:53:13.771Z</time>
      </trkpt>
      <trkpt lat="48.278818214312196" lon="17.057572603225708">
        <ele>201.1</ele>
        <time>2024-01-19T07:53:13.993Z</time>
      </trkpt>
      <trkpt lat="48.278818130493164" lon="17.057572603225708">
        <ele>201.03</ele>
        <time>2024-01-19T07:53:14.215Z</time>
      </trkpt>
      <trkpt lat="48.27824958600104" lon="17.05851674079895">
        <ele>201.09</ele>
        <time>2024-01-19T07:53:14.465Z</time>
      </trkpt>
      <trkpt lat="48.27824950218201" lon="17.05851674079895">
        <ele>201.25</ele>
        <time>2024-01-19T07:53:14.715Z</time>
      </trkpt>
      <trkpt lat="48.27809929847717" lon="17.05877423286438">
        <ele>201.61</ele>
        <time>2024-01-19T07:53:14.973Z</time>
      </trkpt>
      <trkpt lat="48.27800273895264" lon="17.058967351913452">
        <ele>202.04</ele>
        <time>2024-01-19T07:53:15.236Z</time>
      </trkpt>
      <trkpt lat="48.27720880508423" lon="17.06080198287964">
        <ele>202.6</ele>
        <time>2024-01-19T07:53:15.548Z</time>
      </trkpt>
      <trkpt lat="48.276307582855225" lon="17.062679529190063">
        <ele>203.38</ele>
        <time>2024-01-19T07:53:15.911Z</time>
      </trkpt>
      <trkpt lat="48.27610373497009" lon="17.06302285194397">
        <ele>204.06</ele>
        <time>2024-01-19T07:53:16.285Z</time>
      </trkpt>
      <trkpt lat="48.27591061592102" lon="17.063312530517578">
        <ele>204.9</ele>
        <time>2024-01-19T07:53:16.668Z</time>
      </trkpt>
      <trkpt lat="48.27567458152771" lon="17.063602209091187">
        <ele>205.68</ele>
        <time>2024-01-19T07:53:17.061Z</time>
      </trkpt>
      <trkpt lat="48.27512741088867" lon="17.064170837402344">
        <ele>206.67</ele>
        <time>2024-01-19T07:53:17.476Z</time>
      </trkpt>
      <trkpt lat="48.27452667988837" lon="17.06477165222168">
        <ele>207.59</ele>
        <time>2024-01-19T07:53:17.915Z</time>
      </trkpt>
      <trkpt lat="48.274526596069336" lon="17.06477165222168">
        <ele>208.4</ele>
        <time>2024-01-19T07:53:18.354Z</time>
      </trkpt>
      <trkpt lat="48.27344298362732" lon="17.065908908843994">
        <ele>209.5</ele>
        <time>2024-01-19T07:53:18.837Z</time>
      </trkpt>
      <trkpt lat="48.272552490234375" lon="17.066681385040283">
        <ele>210.52</ele>
        <time>2024-01-19T07:53:19.355Z</time>
      </trkpt>
      <trkpt lat="48.2724130153656" lon="17.066831588745117">
        <ele>210.92</ele>
        <time>2024-01-19T07:53:19.878Z</time>
      </trkpt>
      <trkpt lat="48.27160835266113" lon="17.067872285842896">
        <ele>211.92</ele>
        <time>2024-01-19T07:53:20.437Z</time>
      </trkpt>
      <trkpt lat="48.271039724349976" lon="17.06847310066223">
        <ele>212.74</ele>
        <time>2024-01-19T07:53:21.019Z</time>
      </trkpt>
      <trkpt lat="48.27073931694031" lon="17.068816423416138">
        <ele>213.22</ele>
        <time>2024-01-19T07:53:21.614Z</time>
      </trkpt>
      <trkpt lat="48.27011704444885" lon="17.069642543792725">
        <ele>214.61</ele>
        <time>2024-01-19T07:53:22.236Z</time>
      </trkpt>
      <trkpt lat="48.269675401970744" lon="17.070257691666484">
        <ele>214.66</ele>
        <time>2024-01-19T07:53:22.879Z</time>
      </trkpt>
      <trkpt lat="48.26921590603888" lon="17.070897817611694">
        <ele>214.98</ele>
        <time>2024-01-19T07:53:23.542Z</time>
      </trkpt>
      <trkpt lat="48.26917299069464" lon="17.07096219062805">
        <ele>215.34</ele>
        <time>2024-01-19T07:53:24.207Z</time>
      </trkpt>
      <trkpt lat="48.26862573623657" lon="17.0717990398407">
        <ele>216.6</ele>
        <time>2024-01-19T07:53:24.899Z</time>
      </trkpt>
      <trkpt lat="48.268293142318726" lon="17.07229256629944">
        <ele>217.24</ele>
        <time>2024-01-19T07:53:25.606Z</time>
      </trkpt>
      <trkpt lat="48.268057107925415" lon="17.072603702545166">
        <ele>217.9</ele>
        <time>2024-01-19T07:53:26.324Z</time>
      </trkpt>
      <trkpt lat="48.26738119125366" lon="17.073429822921753">
        <ele>219.19</ele>
        <time>2024-01-19T07:53:27.071Z</time>
      </trkpt>
      <trkpt lat="48.267284631729126" lon="17.073580026626587">
        <ele>219.93</ele>
        <time>2024-01-19T07:53:27.822Z</time>
      </trkpt>
      <trkpt lat="48.26718807220459" lon="17.07377314567566">
        <ele>220.63</ele>
        <time>2024-01-19T07:53:28.579Z</time>
      </trkpt>
      <trkpt lat="48.267070138826966" lon="17.07404136657715">
        <ele>221.32</ele>
        <time>2024-01-19T07:53:29.343Z</time>
      </trkpt>
      <trkpt lat="48.267070055007935" lon="17.07404136657715">
        <ele>221.91</ele>
        <time>2024-01-19T07:53:30.107Z</time>
      </trkpt>
      <trkpt lat="48.266834020614624" lon="17.07472801208496">
        <ele>222.53</ele>
        <time>2024-01-19T07:53:30.888Z</time>
      </trkpt>
      <trkpt lat="48.26675891876221" lon="17.074931859970093">
        <ele>223.24</ele>
        <time>2024-01-19T07:53:31.674Z</time>
      </trkpt>
      <trkpt lat="48.266136730089784" lon="17.07625150680542">
        <ele>224.28</ele>
        <time>2024-01-19T07:53:32.496Z</time>
      </trkpt>
      <trkpt lat="48.26613664627075" lon="17.07625150680542">
        <ele>225.05</ele>
        <time>2024-01-19T07:53:33.318Z</time>
      </trkpt>
      <trkpt lat="48.26599717140198" lon="17.076573371887207">
        <ele>226.02</ele>
        <time>2024-01-19T07:53:34.149Z</time>
      </trkpt>
      <trkpt lat="48.26577186584473" lon="17.077174186706543">
        <ele>227.07</ele>
        <time>2024-01-19T07:53:34.995Z</time>
      </trkpt>
      <trkpt lat="48.265589559450746" lon="17.077796459197998">
        <ele>228.11</ele>
        <time>2024-01-19T07:53:35.856Z</time>
      </trkpt>
      <trkpt lat="48.265321254730225" lon="17.079083919525146">
        <ele>229.03</ele>
        <time>2024-01-19T07:53:36.747Z</time>
      </trkpt>
      <trkpt lat="48.265278339385986" lon="17.079319953918457">
        <ele>229.85</ele>
        <time>2024-01-19T07:53:37.644Z</time>
      </trkpt>
      <trkpt lat="48.26523542404175" lon="17.079427242279053">
        <ele>230.65</ele>
        <time>2024-01-19T07:53:38.544Z</time>
      </trkpt>
      <trkpt lat="48.265096032992005" lon="17.0797061920166">
        <ele>231.49</ele>
        <time>2024-01-19T07:53:39.451Z</time>
      </trkpt>
      <trkpt lat="48.2650101184845" lon="17.079942226409912">
        <ele>232.4</ele>
        <time>2024-01-19T07:53:40.364Z</time>
      </trkpt>
      <trkpt lat="48.26460242271423" lon="17.08151936531067">
        <ele>233.69</ele>
        <time>2024-01-19T07:53:41.315Z</time>
      </trkpt>
      <trkpt lat="48.2642606087029" lon="17.082700291648507">
        <ele>235.19</ele>
        <time>2024-01-19T07:53:42.295Z</time>
      </trkpt>
      <trkpt lat="48.26424837112427" lon="17.08274245262146">
        <ele>235.21</ele>
        <time>2024-01-19T07:53:43.276Z</time>
      </trkpt>
      <trkpt lat="48.26418399810791" lon="17.082828283309937">
        <ele>234.48</ele>
        <time>2024-01-19T07:53:44.260Z</time>
      </trkpt>
      <trkpt lat="48.26371192932129" lon="17.08324670791626">
        <ele>233.13</ele>
        <time>2024-01-19T07:53:45.262Z</time>
      </trkpt>
      <trkpt lat="48.26373338699341" lon="17.082914113998413">
        <ele>232.27</ele>
        <time>2024-01-19T07:53:46.271Z</time>
      </trkpt>
      <trkpt lat="48.263787031173706" lon="17.082345485687256">
        <ele>231.51</ele>
        <time>2024-01-19T07:53:47.293Z</time>
      </trkpt>
      <trkpt lat="48.26387286186218" lon="17.081819772720337">
        <ele>231.12</ele>
        <time>2024-01-19T07:53:48.327Z</time>
      </trkpt>
      <trkpt lat="48.26386213302612" lon="17.08145499229431">
        <ele>230.86</ele>
        <time>2024-01-19T07:53:49.369Z</time>
      </trkpt>
      <trkpt lat="48.263808488845825" lon="17.081304788589478">
        <ele>230.71</ele>
        <time>2024-01-19T07:53:50.415Z</time>
      </trkpt>
      <trkpt lat="48.26373338699341" lon="17.081197500228882">
        <ele>230.64</ele>
        <time>2024-01-19T07:53:51.465Z</time>
      </trkpt>
      <trkpt lat="48.26344379223883" lon="17.08050012588501">
        <ele>230.62</ele>
        <time>2024-01-19T07:53:52.533Z</time>
      </trkpt>
      <trkpt lat="48.26337933540344" lon="17.080371379852295">
        <ele>230.63</ele>
        <time>2024-01-19T07:53:53.604Z</time>
      </trkpt>
      <trkpt lat="48.263078927993774" lon="17.08002805709839">
        <ele>230.67</ele>
        <time>2024-01-19T07:53:54.688Z</time>
      </trkpt>
      <trkpt lat="48.26305713504553" lon="17.079999139532447">
        <ele>230.71</ele>
        <time>2024-01-19T07:53:55.773Z</time>
      </trkpt>
      <trkpt lat="48.262553215026855" lon="17.079330682754517">
        <ele>232.12</ele>
        <time>2024-01-19T07:53:56.880Z</time>
      </trkpt>
      <trkpt lat="48.262306451797485" lon="17.079319953918457">
        <ele>233.71</ele>
        <time>2024-01-19T07:53:57.996Z</time>
      </trkpt>
      <trkpt lat="48.26219916343689" lon="17.079373598098755">
        <ele>235.28</ele>
        <time>2024-01-19T07:53:59.116Z</time>
      </trkpt>
      <trkpt lat="48.2618772983551" lon="17.079674005508423">
        <ele>237.16</ele>
        <time>2024-01-19T07:54:00.248Z</time>
      </trkpt>
      <trkpt lat="48.26174855232239" lon="17.0797061920166">
        <ele>239.07</ele>
        <time>2024-01-19T07:54:01.385Z</time>
      </trkpt>
      <trkpt lat="48.26161980628967" lon="17.079663276672363">
        <ele>241.13</ele>
        <time>2024-01-19T07:54:02.526Z</time>
      </trkpt>
      <trkpt lat="48.261330127716064" lon="17.079663276672363">
        <ele>243.29</ele>
        <time>2024-01-19T07:54:03.677Z</time>
      </trkpt>
      <trkpt lat="48.26118000783026" lon="17.0797598361969">
        <ele>245.55</ele>
        <time>2024-01-19T07:54:04.833Z</time>
      </trkpt>
      <trkpt lat="48.2609760761261" lon="17.079942226409912">
        <ele>248.15</ele>
        <time>2024-01-19T07:54:05.997Z</time>
      </trkpt>
      <trkpt lat="48.260793685913086" lon="17.080049514770508">
        <ele>250.86</ele>
        <time>2024-01-19T07:54:07.167Z</time>
      </trkpt>
      <trkpt lat="48.2602144125849" lon="17.080382108688354">
        <ele>254.18</ele>
        <time>2024-01-19T07:54:08.358Z</time>
      </trkpt>
      <trkpt lat="48.25996764935553" lon="17.080661058425903">
        <ele>257.11</ele>
        <time>2024-01-19T07:54:09.559Z</time>
      </trkpt>
      <trkpt lat="48.25975298881531" lon="17.080907821655273">
        <ele>259.83</ele>
        <time>2024-01-19T07:54:10.770Z</time>
      </trkpt>
      <trkpt lat="48.259334564208984" lon="17.081304788589478">
        <ele>262.63</ele>
        <time>2024-01-19T07:54:11.997Z</time>
      </trkpt>
      <trkpt lat="48.25921663083136" lon="17.08149790763855">
        <ele>265.09</ele>
        <time>2024-01-19T07:54:13.230Z</time>
      </trkpt>
      <trkpt lat="48.25894832611084" lon="17.08176612854004">
        <ele>267.56</ele>
        <time>2024-01-19T07:54:14.474Z</time>
      </trkpt>
      <trkpt lat="48.25852998532355" lon="17.082141637802124">
        <ele>269.58</ele>
        <time>2024-01-19T07:54:15.734Z</time>
      </trkpt>
      <trkpt lat="48.258379781618714" lon="17.082324028015137">
        <ele>271.31</ele>
        <time>2024-01-19T07:54:17.000Z</time>
      </trkpt>
      <trkpt lat="48.25837969779968" lon="17.082324028015137">
        <ele>272.97</ele>
        <time>2024-01-19T07:54:18.266Z</time>
      </trkpt>
      <trkpt lat="48.258111560717225" lon="17.082570791244507">
        <ele>274.66</ele>
        <time>2024-01-19T07:54:19.543Z</time>
      </trkpt>
      <trkpt lat="48.25750001706183" lon="17.083171606063843">
        <ele>277.08</ele>
        <time>2024-01-19T07:54:20.844Z</time>
      </trkpt>
      <trkpt lat="48.25740337371826" lon="17.08326816558838">
        <ele>278.94</ele>
        <time>2024-01-19T07:54:22.149Z</time>
      </trkpt>
      <trkpt lat="48.25727462768555" lon="17.083300352096558">
        <ele>281.0</ele>
        <time>2024-01-19T07:54:23.458Z</time>
      </trkpt>
      <trkpt lat="48.25694211758673" lon="17.083311080932617">
        <ele>283.47</ele>
        <time>2024-01-19T07:54:24.779Z</time>
      </trkpt>
      <trkpt lat="48.25657733716071" lon="17.083375453948975">
        <ele>286.23</ele>
        <time>2024-01-19T07:54:26.112Z</time>
      </trkpt>
      <trkpt lat="48.25654515065253" lon="17.083386182785034">
        <ele>288.95</ele>
        <time>2024-01-19T07:54:27.446Z</time>
      </trkpt>
      <trkpt lat="48.25652369298041" lon="17.083396911621094">
        <ele>292.25</ele>
        <time>2024-01-19T07:54:28.781Z</time>
      </trkpt>
      <trkpt lat="48.25597643852234" lon="17.08369731903076">
        <ele>297.01</ele>
        <time>2024-01-19T07:54:30.135Z</time>
      </trkpt>
      <trkpt lat="48.25546145439148" lon="17.084083557128906">
        <ele>301.67</ele>
        <time>2024-01-19T07:54:31.508Z</time>
      </trkpt>
      <trkpt lat="48.25490355491638" lon="17.084619998931885">
        <ele>306.18</ele>
        <time>2024-01-19T07:54:32.903Z</time>
      </trkpt>
      <trkpt lat="48.25464396737516" lon="17.08492903970182">
        <ele>309.05</ele>
        <time>2024-01-19T07:54:34.310Z</time>
      </trkpt>
      <trkpt lat="48.25464396737516" lon="17.084928955882788">
        <ele>309.15</ele>
        <time>2024-01-19T07:54:35.717Z</time>
      </trkpt>
      <trkpt lat="48.25464396737516" lon="17.08492903970182">
        <ele>318.02</ele>
        <time>2024-01-19T07:54:37.124Z</time>
      </trkpt>
      <trkpt lat="48.25445294380188" lon="17.085156440734863">
        <ele>319.64</ele>
        <time>2024-01-19T07:54:38.539Z</time>
      </trkpt>
      <trkpt lat="48.253605365753174" lon="17.085821628570557">
        <ele>322.81</ele>
        <time>2024-01-19T07:54:39.986Z</time>
      </trkpt>
      <trkpt lat="48.252553939819336" lon="17.086411714553833">
        <ele>326.49</ele>
        <time>2024-01-19T07:54:41.470Z</time>
      </trkpt>
      <trkpt lat="48.25228571891785" lon="17.08650827407837">
        <ele>329.1</ele>
        <time>2024-01-19T07:54:42.963Z</time>
      </trkpt>
      <trkpt lat="48.25222142972052" lon="17.08650827407837">
        <ele>331.05</ele>
        <time>2024-01-19T07:54:44.458Z</time>
      </trkpt>
      <trkpt lat="48.25222134590149" lon="17.08650827407837">
        <ele>332.57</ele>
        <time>2024-01-19T07:54:45.953Z</time>
      </trkpt>
      <trkpt lat="48.252060413360596" lon="17.08648681640625">
        <ele>333.92</ele>
        <time>2024-01-19T07:54:47.454Z</time>
      </trkpt>
      <trkpt lat="48.251835107803345" lon="17.086336612701416">
        <ele>335.0</ele>
        <time>2024-01-19T07:54:48.963Z</time>
      </trkpt>
      <trkpt lat="48.2512451056391" lon="17.08572506904602">
        <ele>336.4</ele>
        <time>2024-01-19T07:54:50.496Z</time>
      </trkpt>
      <trkpt lat="48.25103052891791" lon="17.08551049232483">
        <ele>337.78</ele>
        <time>2024-01-19T07:54:52.038Z</time>
      </trkpt>
      <trkpt lat="48.250815868377686" lon="17.085285186767578">
        <ele>338.87</ele>
        <time>2024-01-19T07:54:53.588Z</time>
      </trkpt>
      <trkpt lat="48.25046190060675" lon="17.08497405052185">
        <ele>340.1</ele>
        <time>2024-01-19T07:54:55.152Z</time>
      </trkpt>
      <trkpt lat="48.24982889927924" lon="17.08446979522705">
        <ele>341.88</ele>
        <time>2024-01-19T07:54:56.740Z</time>
      </trkpt>
      <trkpt lat="48.24964642524719" lon="17.084330320358276">
        <ele>342.79</ele>
        <time>2024-01-19T07:54:58.335Z</time>
      </trkpt>
      <trkpt lat="48.2494854927063" lon="17.084126472473145">
        <ele>343.22</ele>
        <time>2024-01-19T07:54:59.937Z</time>
      </trkpt>
      <trkpt lat="48.24924945831299" lon="17.08376169204712">
        <ele>343.27</ele>
        <time>2024-01-19T07:55:01.550Z</time>
      </trkpt>
      <trkpt lat="48.24973225593567" lon="17.082388401031494">
        <ele>342.82</ele>
        <time>2024-01-19T07:55:03.198Z</time>
      </trkpt>
      <trkpt lat="48.249850273132324" lon="17.081540822982788">
        <ele>343.09</ele>
        <time>2024-01-19T07:55:04.865Z</time>
      </trkpt>
      <trkpt lat="48.249839544296265" lon="17.081422805786133">
        <ele>343.35</ele>
        <time>2024-01-19T07:55:06.535Z</time>
      </trkpt>
      <trkpt lat="48.249785983935" lon="17.081218957901">
        <ele>343.76</ele>
        <time>2024-01-19T07:55:08.210Z</time>
      </trkpt>
      <trkpt lat="48.249893272295594" lon="17.08099365234375">
        <ele>344.44</ele>
        <time>2024-01-19T07:55:09.891Z</time>
      </trkpt>
      <trkpt lat="48.24989318847656" lon="17.08099365234375">
        <ele>345.04</ele>
        <time>2024-01-19T07:55:11.572Z</time>
      </trkpt>
      <trkpt lat="48.250097036361694" lon="17.080650329589844">
        <ele>346.11</ele>
        <time>2024-01-19T07:55:13.263Z</time>
      </trkpt>
      <trkpt lat="48.25041898526251" lon="17.08023190498352">
        <ele>347.03</ele>
        <time>2024-01-19T07:55:14.968Z</time>
      </trkpt>
      <trkpt lat="48.25046181678772" lon="17.080178260803223">
        <ele>347.5</ele>
        <time>2024-01-19T07:55:16.675Z</time>
      </trkpt>
      <trkpt lat="48.250826597213745" lon="17.079920768737793">
        <ele>347.88</ele>
        <time>2024-01-19T07:55:18.395Z</time>
      </trkpt>
      <trkpt lat="48.251566886901855" lon="17.079062461853027">
        <ele>348.17</ele>
        <time>2024-01-19T07:55:20.147Z</time>
      </trkpt>
      <trkpt lat="48.25172790326178" lon="17.078826427459717">
        <ele>348.67</ele>
        <time>2024-01-19T07:55:21.906Z</time>
      </trkpt>
      <trkpt lat="48.25190417468548" lon="17.078576562926173">
        <ele>349.27</ele>
        <time>2024-01-19T07:55:23.673Z</time>
      </trkpt>
      <trkpt lat="48.252114141359925" lon="17.07827925682068">
        <ele>353.89</ele>
        <time>2024-01-19T07:55:25.450Z</time>
      </trkpt>
      <trkpt lat="48.25328358449042" lon="17.076605558395386">
        <ele>355.59</ele>
        <time>2024-01-19T07:55:27.281Z</time>
      </trkpt>
      <trkpt lat="48.2534122467041" lon="17.076369524002075">
        <ele>356.79</ele>
        <time>2024-01-19T07:55:29.119Z</time>
      </trkpt>
      <trkpt lat="48.25353026390076" lon="17.076197862625122">
        <ele>357.46</ele>
        <time>2024-01-19T07:55:30.962Z</time>
      </trkpt>
      <trkpt lat="48.25365900993347" lon="17.07603693008423">
        <ele>357.7</ele>
        <time>2024-01-19T07:55:32.811Z</time>
      </trkpt>
      <trkpt lat="48.253862941637635" lon="17.075833082199097">
        <ele>357.52</ele>
        <time>2024-01-19T07:55:34.668Z</time>
      </trkpt>
      <trkpt lat="48.25399168767035" lon="17.075682878494263">
        <ele>357.51</ele>
        <time>2024-01-19T07:55:36.530Z</time>
      </trkpt>
      <trkpt lat="48.25403451919556" lon="17.075639963150024">
        <ele>357.52</ele>
        <time>2024-01-19T07:55:38.394Z</time>
      </trkpt>
      <trkpt lat="48.25418472290039" lon="17.07550048828125">
        <ele>357.65</ele>
        <time>2024-01-19T07:55:40.264Z</time>
      </trkpt>
      <trkpt lat="48.25425990857184" lon="17.07547903060913">
        <ele>357.81</ele>
        <time>2024-01-19T07:55:42.137Z</time>
      </trkpt>
      <trkpt lat="48.25439929962158" lon="17.07545757293701">
        <ele>358.04</ele>
        <time>2024-01-19T07:55:44.014Z</time>
      </trkpt>
      <trkpt lat="48.25450658798218" lon="17.075393199920654">
        <ele>358.28</ele>
        <time>2024-01-19T07:55:45.895Z</time>
      </trkpt>
      <trkpt lat="48.25463533401489" lon="17.075307369232178">
        <ele>358.49</ele>
        <time>2024-01-19T07:55:47.781Z</time>
      </trkpt>
      <trkpt lat="48.25475335121155" lon="17.075200080871582">
        <ele>358.52</ele>
        <time>2024-01-19T07:55:49.671Z</time>
      </trkpt>
      <trkpt lat="48.25488209724426" lon="17.075124979019165">
        <ele>358.38</ele>
        <time>2024-01-19T07:55:51.566Z</time>
      </trkpt>
      <trkpt lat="48.25513958930969" lon="17.07499623298645">
        <ele>357.88</ele>
        <time>2024-01-19T07:55:53.470Z</time>
      </trkpt>
      <trkpt lat="48.255289793014526" lon="17.074953317642212">
        <ele>357.25</ele>
        <time>2024-01-19T07:55:55.379Z</time>
      </trkpt>
      <trkpt lat="48.255375623703" lon="17.074899673461914">
        <ele>356.48</ele>
        <time>2024-01-19T07:55:57.291Z</time>
      </trkpt>
      <trkpt lat="48.25562238693237" lon="17.07448124885559">
        <ele>355.38</ele>
        <time>2024-01-19T07:55:59.216Z</time>
      </trkpt>
      <trkpt lat="48.25576186180115" lon="17.07427740097046">
        <ele>354.26</ele>
        <time>2024-01-19T07:56:01.147Z</time>
      </trkpt>
      <trkpt lat="48.25603008270264" lon="17.073934078216553">
        <ele>353.24</ele>
        <time>2024-01-19T07:56:03.090Z</time>
      </trkpt>
      <trkpt lat="48.25620174407959" lon="17.07375168800354">
        <ele>351.97</ele>
        <time>2024-01-19T07:56:05.040Z</time>
      </trkpt>
      <trkpt lat="48.2564377784729" lon="17.073429822921753">
        <ele>350.38</ele>
        <time>2024-01-19T07:56:07.001Z</time>
      </trkpt>
      <trkpt lat="48.25655587948859" lon="17.07321524620056">
        <ele>348.93</ele>
        <time>2024-01-19T07:56:08.968Z</time>
      </trkpt>
      <trkpt lat="48.256555795669556" lon="17.07321524620056">
        <ele>347.61</ele>
        <time>2024-01-19T07:56:10.935Z</time>
      </trkpt>
      <trkpt lat="48.25672745704651" lon="17.072560787200928">
        <ele>345.97</ele>
        <time>2024-01-19T07:56:12.918Z</time>
      </trkpt>
      <trkpt lat="48.256824016571045" lon="17.072303295135498">
        <ele>344.61</ele>
        <time>2024-01-19T07:56:14.907Z</time>
      </trkpt>
      <trkpt lat="48.25702786445618" lon="17.07202434539795">
        <ele>343.34</ele>
        <time>2024-01-19T07:56:16.905Z</time>
      </trkpt>
      <trkpt lat="48.25718879699707" lon="17.071852684020996">
        <ele>342.0</ele>
        <time>2024-01-19T07:56:18.910Z</time>
      </trkpt>
      <trkpt lat="48.257296085357666" lon="17.071702480316162">
        <ele>340.63</ele>
        <time>2024-01-19T07:56:20.920Z</time>
      </trkpt>
      <trkpt lat="48.2573926448822" lon="17.07148790359497">
        <ele>339.31</ele>
        <time>2024-01-19T07:56:22.936Z</time>
      </trkpt>
      <trkpt lat="48.25762867927551" lon="17.071069478988647">
        <ele>337.87</ele>
        <time>2024-01-19T07:56:24.964Z</time>
      </trkpt>
      <trkpt lat="48.257843255996704" lon="17.070640325546265">
        <ele>336.52</ele>
        <time>2024-01-19T07:56:27.004Z</time>
      </trkpt>
      <trkpt lat="48.25831540860236" lon="17.069610357284546">
        <ele>335.04</ele>
        <time>2024-01-19T07:56:29.072Z</time>
      </trkpt>
      <trkpt lat="48.25844407081604" lon="17.069363594055176">
        <ele>333.8</ele>
        <time>2024-01-19T07:56:31.146Z</time>
      </trkpt>
      <trkpt lat="48.25873383320868" lon="17.068923711776733">
        <ele>332.62</ele>
        <time>2024-01-19T07:56:33.234Z</time>
      </trkpt>
      <trkpt lat="48.25900197029114" lon="17.068687677383423">
        <ele>331.53</ele>
        <time>2024-01-19T07:56:35.333Z</time>
      </trkpt>
      <trkpt lat="48.259795904159546" lon="17.06751823425293">
        <ele>330.57</ele>
        <time>2024-01-19T07:56:37.469Z</time>
      </trkpt>
      <trkpt lat="48.260064125061035" lon="17.06723928451538">
        <ele>329.57</ele>
        <time>2024-01-19T07:56:39.616Z</time>
      </trkpt>
      <trkpt lat="48.260589838027954" lon="17.06674575805664">
        <ele>328.67</ele>
        <time>2024-01-19T07:56:41.783Z</time>
      </trkpt>
      <trkpt lat="48.260868871584535" lon="17.066370248794556">
        <ele>327.62</ele>
        <time>2024-01-19T07:56:43.963Z</time>
      </trkpt>
      <trkpt lat="48.2608687877655" lon="17.066370248794556">
        <ele>326.95</ele>
        <time>2024-01-19T07:56:46.143Z</time>
      </trkpt>
      <trkpt lat="48.26101899147034" lon="17.066155672073364">
        <ele>326.05</ele>
        <time>2024-01-19T07:56:48.330Z</time>
      </trkpt>
      <trkpt lat="48.26169490814209" lon="17.06552267074585">
        <ele>325.46</ele>
        <time>2024-01-19T07:56:50.543Z</time>
      </trkpt>
      <trkpt lat="48.26197394169867" lon="17.065361738204956">
        <ele>325.26</ele>
        <time>2024-01-19T07:56:52.766Z</time>
      </trkpt>
      <trkpt lat="48.262349367141724" lon="17.065157890319824">
        <ele>325.13</ele>
        <time>2024-01-19T07:56:55.003Z</time>
      </trkpt>
      <trkpt lat="48.26266050338745" lon="17.064900398254395">
        <ele>325.12</ele>
        <time>2024-01-19T07:56:57.252Z</time>
      </trkpt>
      <trkpt lat="48.26292872428894" lon="17.064718008041382">
        <ele>325.19</ele>
        <time>2024-01-19T07:56:59.510Z</time>
      </trkpt>
      <trkpt lat="48.26316475868225" lon="17.064621448516846">
        <ele>325.24</ele>
        <time>2024-01-19T07:57:01.777Z</time>
      </trkpt>
      <trkpt lat="48.26336860656738" lon="17.064567804336548">
        <ele>325.25</ele>
        <time>2024-01-19T07:57:04.050Z</time>
      </trkpt>
      <trkpt lat="48.263561725616455" lon="17.064589262008667">
        <ele>325.26</ele>
        <time>2024-01-19T07:57:06.330Z</time>
      </trkpt>
      <trkpt lat="48.26372265815735" lon="17.064567804336548">
        <ele>325.24</ele>
        <time>2024-01-19T07:57:08.615Z</time>
      </trkpt>
      <trkpt lat="48.263840675354004" lon="17.064460515975952">
        <ele>325.12</ele>
        <time>2024-01-19T07:57:10.905Z</time>
      </trkpt>
      <trkpt lat="48.26395869255066" lon="17.064331769943237">
        <ele>325.01</ele>
        <time>2024-01-19T07:57:13.200Z</time>
      </trkpt>
      <trkpt lat="48.26416254043579" lon="17.06403136253357">
        <ele>324.84</ele>
        <time>2024-01-19T07:57:15.504Z</time>
      </trkpt>
      <trkpt lat="48.264806270599365" lon="17.063634395599365">
        <ele>324.59</ele>
        <time>2024-01-19T07:57:17.832Z</time>
      </trkpt>
      <trkpt lat="48.265106761828065" lon="17.063355445861816">
        <ele>324.33</ele>
        <time>2024-01-19T07:57:20.171Z</time>
      </trkpt>
      <trkpt lat="48.26529988087714" lon="17.0632266998291">
        <ele>324.05</ele>
        <time>2024-01-19T07:57:22.517Z</time>
      </trkpt>
      <trkpt lat="48.26572895050049" lon="17.063065767288208">
        <ele>323.62</ele>
        <time>2024-01-19T07:57:24.878Z</time>
      </trkpt>
      <trkpt lat="48.265814781188965" lon="17.06301212310791">
        <ele>323.09</ele>
        <time>2024-01-19T07:57:27.242Z</time>
      </trkpt>
      <trkpt lat="48.26597579754889" lon="17.062829732894897">
        <ele>322.34</ele>
        <time>2024-01-19T07:57:29.613Z</time>
      </trkpt>
      <trkpt lat="48.26617956161499" lon="17.062711715698242">
        <ele>321.45</ele>
        <time>2024-01-19T07:57:31.991Z</time>
      </trkpt>
      <trkpt lat="48.26627620495856" lon="17.062711715698242">
        <ele>320.61</ele>
        <time>2024-01-19T07:57:34.372Z</time>
      </trkpt>
      <trkpt lat="48.266340494155884" lon="17.062711715698242">
        <ele>319.7</ele>
        <time>2024-01-19T07:57:36.756Z</time>
      </trkpt>
      <trkpt lat="48.26650142669678" lon="17.0627760887146">
        <ele>318.65</ele>
        <time>2024-01-19T07:57:39.145Z</time>
      </trkpt>
      <trkpt lat="48.26665163040161" lon="17.062883377075195">
        <ele>317.56</ele>
        <time>2024-01-19T07:57:41.540Z</time>
      </trkpt>
      <trkpt lat="48.266844833269715" lon="17.062947750091553">
        <ele>316.35</ele>
        <time>2024-01-19T07:57:43.941Z</time>
      </trkpt>
      <trkpt lat="48.267080867663026" lon="17.06297993659973">
        <ele>315.18</ele>
        <time>2024-01-19T07:57:46.350Z</time>
      </trkpt>
      <trkpt lat="48.267628038302064" lon="17.063151597976685">
        <ele>313.82</ele>
        <time>2024-01-19T07:57:48.778Z</time>
      </trkpt>
      <trkpt lat="48.26788544654846" lon="17.063194513320923">
        <ele>312.48</ele>
        <time>2024-01-19T07:57:51.215Z</time>
      </trkpt>
      <trkpt lat="48.26819666661322" lon="17.063097953796387">
        <ele>311.28</ele>
        <time>2024-01-19T07:57:53.662Z</time>
      </trkpt>
      <trkpt lat="48.268314599990845" lon="17.063065767288208">
        <ele>310.56</ele>
        <time>2024-01-19T07:57:56.113Z</time>
      </trkpt>
      <trkpt lat="48.26875448226929" lon="17.06279754638672">
        <ele>310.23</ele>
        <time>2024-01-19T07:57:58.580Z</time>
      </trkpt>
      <trkpt lat="48.269033432006836" lon="17.0627760887146">
        <ele>309.58</ele>
        <time>2024-01-19T07:58:01.056Z</time>
      </trkpt>
      <trkpt lat="48.26920509338379" lon="17.0627224445343">
        <ele>309.06</ele>
        <time>2024-01-19T07:58:03.538Z</time>
      </trkpt>
      <trkpt lat="48.26940894126892" lon="17.06254005432129">
        <ele>308.6</ele>
        <time>2024-01-19T07:58:06.028Z</time>
      </trkpt>
      <trkpt lat="48.26953777112067" lon="17.062368392944336">
        <ele>308.02</ele>
        <time>2024-01-19T07:58:08.524Z</time>
      </trkpt>
      <trkpt lat="48.26965570449829" lon="17.062186002731323">
        <ele>307.45</ele>
        <time>2024-01-19T07:58:11.025Z</time>
      </trkpt>
      <trkpt lat="48.26975226402283" lon="17.06200361251831">
        <ele>306.75</ele>
        <time>2024-01-19T07:58:13.532Z</time>
      </trkpt>
      <trkpt lat="48.269939348101616" lon="17.061521401628852">
        <ele>305.93</ele>
        <time>2024-01-19T07:58:16.051Z</time>
      </trkpt>
      <trkpt lat="48.270031213760376" lon="17.06128478050232">
        <ele>304.49</ele>
        <time>2024-01-19T07:58:18.576Z</time>
      </trkpt>
      <trkpt lat="48.27048182487488" lon="17.061638832092285">
        <ele>302.24</ele>
        <time>2024-01-19T07:58:21.118Z</time>
      </trkpt>
      <trkpt lat="48.270814418792725" lon="17.061821222305298">
        <ele>301.35</ele>
        <time>2024-01-19T07:58:23.672Z</time>
      </trkpt>
      <trkpt lat="48.271340131759644" lon="17.06175684928894">
        <ele>300.57</ele>
        <time>2024-01-19T07:58:26.244Z</time>
      </trkpt>
      <trkpt lat="48.27198386192322" lon="17.061563730239868">
        <ele>300.68</ele>
        <time>2024-01-19T07:58:28.837Z</time>
      </trkpt>
      <trkpt lat="48.27243447303772" lon="17.061145305633545">
        <ele>299.74</ele>
        <time>2024-01-19T07:58:31.448Z</time>
      </trkpt>
      <trkpt lat="48.272809982299805" lon="17.060683965682983">
        <ele>297.64</ele>
        <time>2024-01-19T07:58:34.075Z</time>
      </trkpt>
      <trkpt lat="48.27311038970947" lon="17.060415744781494">
        <ele>293.93</ele>
        <time>2024-01-19T07:58:36.714Z</time>
      </trkpt>
      <trkpt lat="48.27399015426636" lon="17.058109045028687">
        <ele>286.77</ele>
        <time>2024-01-19T07:58:39.412Z</time>
      </trkpt>
      <trkpt lat="48.27420280314982" lon="17.057675030082464">
        <ele>282.4</ele>
        <time>2024-01-19T07:58:42.122Z</time>
      </trkpt>
      <trkpt lat="48.274773359298706" lon="17.05651044845581">
        <ele>265.22</ele>
        <time>2024-01-19T07:58:44.864Z</time>
      </trkpt>
      <trkpt lat="48.27483773231506" lon="17.055866718292236">
        <ele>260.05</ele>
        <time>2024-01-19T07:58:47.621Z</time>
      </trkpt>
      <trkpt lat="48.274805545806885" lon="17.054729461669922">
        <ele>252.99</ele>
        <time>2024-01-19T07:58:50.403Z</time>
      </trkpt>
      <trkpt lat="48.275030851364136" lon="17.053978443145752">
        <ele>248.51</ele>
        <time>2024-01-19T07:58:53.204Z</time>
      </trkpt>
      <trkpt lat="48.27509522438049" lon="17.05381751060486">
        <ele>245.45</ele>
        <time>2024-01-19T07:58:56.009Z</time>
      </trkpt>
      <trkpt lat="48.27523469924927" lon="17.05350637435913">
        <ele>242.75</ele>
        <time>2024-01-19T07:58:58.822Z</time>
      </trkpt>
      <trkpt lat="48.27569612301886" lon="17.05274211242795">
        <ele>239.8</ele>
        <time>2024-01-19T07:59:01.658Z</time>
      </trkpt>
      <trkpt lat="48.276264667510986" lon="17.05180048942566">
        <ele>223.76</ele>
        <time>2024-01-19T07:59:04.522Z</time>
      </trkpt>
      <trkpt lat="48.27724099159241" lon="17.050834894180298">
        <ele>217.89</ele>
        <time>2024-01-19T07:59:07.425Z</time>
      </trkpt>
      <trkpt lat="48.277519941329956" lon="17.050652503967285">
        <ele>212.46</ele>
        <time>2024-01-19T07:59:10.338Z</time>
      </trkpt>
      <trkpt lat="48.277562856674194" lon="17.050663232803345">
        <ele>208.48</ele>
        <time>2024-01-19T07:59:13.253Z</time>
      </trkpt>
      <trkpt lat="48.27761650085449" lon="17.050673961639404">
        <ele>205.2</ele>
        <time>2024-01-19T07:59:16.170Z</time>
      </trkpt>
      <trkpt lat="48.27762731350958" lon="17.050673961639404">
        <ele>202.75</ele>
        <time>2024-01-19T07:59:19.087Z</time>
      </trkpt>
      <trkpt lat="48.27774533070624" lon="17.050684690475464">
        <ele>200.48</ele>
        <time>2024-01-19T07:59:22.008Z</time>
      </trkpt>
      <trkpt lat="48.27797063626349" lon="17.050716876983643">
        <ele>198.74</ele>
        <time>2024-01-19T07:59:24.937Z</time>
      </trkpt>
      <trkpt lat="48.27875375747681" lon="17.050867080688477">
        <ele>197.73</ele>
        <time>2024-01-19T07:59:27.892Z</time>
      </trkpt>
      <trkpt lat="48.278818130493164" lon="17.050877809524536">
        <ele>196.94</ele>
        <time>2024-01-19T07:59:30.849Z</time>
      </trkpt>
      <trkpt lat="48.27890396118164" lon="17.050856351852417">
        <ele>196.34</ele>
        <time>2024-01-19T07:59:33.809Z</time>
      </trkpt>
      <trkpt lat="48.27898979187012" lon="17.050716876983643">
        <ele>195.9</ele>
        <time>2024-01-19T07:59:36.773Z</time>
      </trkpt>
      <trkpt lat="48.27910780906677" lon="17.05050230026245">
        <ele>195.62</ele>
        <time>2024-01-19T07:59:39.743Z</time>
      </trkpt>
      <trkpt lat="48.27917226590216" lon="17.050448656082153">
        <ele>195.38</ele>
        <time>2024-01-19T07:59:42.716Z</time>
      </trkpt>
      <trkpt lat="48.2791615370661" lon="17.050362825393677">
        <ele>195.09</ele>
        <time>2024-01-19T07:59:45.691Z</time>
      </trkpt>
      <trkpt lat="48.279107892885804" lon="17.049890756607056">
        <ele>194.71</ele>
        <time>2024-01-19T07:59:48.676Z</time>
      </trkpt>
      <trkpt lat="48.27897193841636" lon="17.048861794173717">
        <ele>194.13</ele>
        <time>2024-01-19T07:59:51.685Z</time>
      </trkpt>
    </trkseg>
  </trk>
</gpx>
